sensor_id;sensor_type;location;lat;lon;timestamp;temperature;humidity
3300;DHT22;1662;49.310;8.134;2024-03-06T00:00:00;7.90;99.90
3300;DHT22;1662;49.310;8.134;2024-03-06T00:02:26;7.90;99.90
3300;DHT22;1662;49.310;8.134;2024-03-06T00:04:52;7.90;99.90
3300;DHT22;1662;49.310;8.134;2024-03-06T00:07:18;7.90;99.90
3300;DHT22;1662;49.310;8.134;2024-03-06T00:09:44;7.90;99.90
3300;DHT22;1662;49.310;8.134;2024-03-06T00:12:10;7.90;99.90
3300;DHT22;1662;49.310;8.134;2024-03-06T00:14:35;7.80;99.90
3300;DHT22;1662;49.310;8.134;2024-03-06T00:17:02;7.90;99.90
3300;DHT22;1662;49.310;8.134;2024-03-06T00:19:32;7.90;99.90
3300;DHT22;1662;49.310;8.134;2024-03-06T00:21:59;7.80;99.90
3300;DHT22;1662;49.310;8.134;2024-03-06T00:24:28;7.90;99.90
3300;DHT22;1662;49.310;8.134;2024-03-06T00:26:53;7.80;99.90
3300;DHT22;1662;49.310;8.134;2024-03-06T00:29:21;7.90;99.90
3300;DHT22;1662;49.310;8.134;2024-03-06T00:31:47;7.90;99.90
3300;DHT22;1662;49.310;8.134;2024-03-06T00:34:13;7.90;99.90
3300;DHT22;1662;49.310;8.134;2024-03-06T00:36:47;7.90;99.90
3300;DHT22;1662;49.310;8.134;2024-03-06T00:39:15;7.90;99.90
3300;DHT22;1662;49.310;8.134;2024-03-06T00:41:41;7.90;99.90
3300;DHT22;1662;49.310;8.134;2024-03-06T00:44:07;7.80;99.90
3300;DHT22;1662;49.310;8.134;2024-03-06T00:46:33;7.80;99.90
3300;DHT22;1662;49.310;8.134;2024-03-06T00:49:01;7.80;99.90
3300;DHT22;1662;49.310;8.134;2024-03-06T00:51:29;7.80;99.90
3300;DHT22;1662;49.310;8.134;2024-03-06T00:53:54;7.80;99.90
3300;DHT22;1662;49.310;8.134;2024-03-06T00:56:20;7.80;99.90
3300;DHT22;1662;49.310;8.134;2024-03-06T00:58:45;7.90;99.90
3300;DHT22;1662;49.310;8.134;2024-03-06T01:01:12;7.80;99.90
3300;DHT22;1662;49.310;8.134;2024-03-06T01:03:38;7.80;99.90
3300;DHT22;1662;49.310;8.134;2024-03-06T01:06:04;7.80;99.90
3300;DHT22;1662;49.310;8.134;2024-03-06T01:08:30;7.80;99.90
3300;DHT22;1662;49.310;8.134;2024-03-06T01:10:57;7.80;99.90
3300;DHT22;1662;49.310;8.134;2024-03-06T01:13:25;7.80;99.90
3300;DHT22;1662;49.310;8.134;2024-03-06T01:15:51;7.90;99.90
3300;DHT22;1662;49.310;8.134;2024-03-06T01:18:17;7.80;99.90
3300;DHT22;1662;49.310;8.134;2024-03-06T01:20:42;7.80;99.90
3300;DHT22;1662;49.310;8.134;2024-03-06T01:23:08;7.90;99.90
3300;DHT22;1662;49.310;8.134;2024-03-06T01:25:34;7.80;99.90
3300;DHT22;1662;49.310;8.134;2024-03-06T01:27:59;7.80;99.90
3300;DHT22;1662;49.310;8.134;2024-03-06T01:30:25;7.80;99.90
3300;DHT22;1662;49.310;8.134;2024-03-06T01:32:50;7.80;99.90
3300;DHT22;1662;49.310;8.134;2024-03-06T01:35:16;7.80;99.90
3300;DHT22;1662;49.310;8.134;2024-03-06T01:37:42;7.70;99.90
3300;DHT22;1662;49.310;8.134;2024-03-06T01:40:08;7.70;99.90
3300;DHT22;1662;49.310;8.134;2024-03-06T01:42:34;7.70;99.90
3300;DHT22;1662;49.310;8.134;2024-03-06T01:45:00;7.70;99.90
3300;DHT22;1662;49.310;8.134;2024-03-06T01:47:25;7.60;99.90
3300;DHT22;1662;49.310;8.134;2024-03-06T01:49:53;7.60;99.90
3300;DHT22;1662;49.310;8.134;2024-03-06T01:52:20;7.60;99.90
3300;DHT22;1662;49.310;8.134;2024-03-06T01:54:48;7.60;99.90
3300;DHT22;1662;49.310;8.134;2024-03-06T01:57:15;7.60;99.90
3300;DHT22;1662;49.310;8.134;2024-03-06T01:59:45;7.60;99.90
3300;DHT22;1662;49.310;8.134;2024-03-06T02:02:11;7.60;99.90
3300;DHT22;1662;49.310;8.134;2024-03-06T02:04:37;7.50;99.90
3300;DHT22;1662;49.310;8.134;2024-03-06T02:07:03;7.50;99.90
3300;DHT22;1662;49.310;8.134;2024-03-06T02:09:32;7.50;99.90
3300;DHT22;1662;49.310;8.134;2024-03-06T02:11:58;7.40;99.90
3300;DHT22;1662;49.310;8.134;2024-03-06T02:14:23;7.40;99.90
3300;DHT22;1662;49.310;8.134;2024-03-06T02:16:49;7.30;99.90
3300;DHT22;1662;49.310;8.134;2024-03-06T02:19:18;7.20;99.90
3300;DHT22;1662;49.310;8.134;2024-03-06T02:21:43;7.20;99.90
3300;DHT22;1662;49.310;8.134;2024-03-06T02:24:10;7.20;99.90
3300;DHT22;1662;49.310;8.134;2024-03-06T02:26:37;7.20;99.90
3300;DHT22;1662;49.310;8.134;2024-03-06T02:29:03;7.20;99.90
3300;DHT22;1662;49.310;8.134;2024-03-06T02:31:31;7.20;99.90
3300;DHT22;1662;49.310;8.134;2024-03-06T02:33:56;7.20;99.90
3300;DHT22;1662;49.310;8.134;2024-03-06T02:36:24;7.20;99.90
3300;DHT22;1662;49.310;8.134;2024-03-06T02:38:49;7.10;99.90
3300;DHT22;1662;49.310;8.134;2024-03-06T02:41:15;7.10;99.90
3300;DHT22;1662;49.310;8.134;2024-03-06T02:43:41;7.10;99.90
3300;DHT22;1662;49.310;8.134;2024-03-06T02:46:08;7.00;99.90
3300;DHT22;1662;49.310;8.134;2024-03-06T02:48:34;7.00;99.90
3300;DHT22;1662;49.310;8.134;2024-03-06T02:51:00;7.00;99.90
3300;DHT22;1662;49.310;8.134;2024-03-06T02:53:29;7.00;99.90
3300;DHT22;1662;49.310;8.134;2024-03-06T02:55:54;7.00;99.90
3300;DHT22;1662;49.310;8.134;2024-03-06T02:58:20;7.00;99.90
3300;DHT22;1662;49.310;8.134;2024-03-06T03:00:45;7.00;99.90
3300;DHT22;1662;49.310;8.134;2024-03-06T03:03:11;7.00;99.90
3300;DHT22;1662;49.310;8.134;2024-03-06T03:05:40;7.00;99.90
3300;DHT22;1662;49.310;8.134;2024-03-06T03:08:09;7.10;99.90
3300;DHT22;1662;49.310;8.134;2024-03-06T03:10:34;7.10;99.90
3300;DHT22;1662;49.310;8.134;2024-03-06T03:13:02;7.10;99.90
3300;DHT22;1662;49.310;8.134;2024-03-06T03:15:30;7.10;99.90
3300;DHT22;1662;49.310;8.134;2024-03-06T03:17:55;7.10;99.90
3300;DHT22;1662;49.310;8.134;2024-03-06T03:20:21;7.10;99.90
3300;DHT22;1662;49.310;8.134;2024-03-06T03:22:46;7.10;99.90
3300;DHT22;1662;49.310;8.134;2024-03-06T03:25:13;7.10;99.90
3300;DHT22;1662;49.310;8.134;2024-03-06T03:27:39;7.10;99.90
3300;DHT22;1662;49.310;8.134;2024-03-06T03:30:17;7.20;99.90
3300;DHT22;1662;49.310;8.134;2024-03-06T03:32:47;7.20;99.90
3300;DHT22;1662;49.310;8.134;2024-03-06T03:35:22;7.20;99.90
3300;DHT22;1662;49.310;8.134;2024-03-06T03:37:51;7.20;99.90
3300;DHT22;1662;49.310;8.134;2024-03-06T03:40:18;7.20;99.90
3300;DHT22;1662;49.310;8.134;2024-03-06T03:42:46;7.20;99.90
3300;DHT22;1662;49.310;8.134;2024-03-06T03:45:13;7.20;99.90
3300;DHT22;1662;49.310;8.134;2024-03-06T03:47:42;7.20;99.90
3300;DHT22;1662;49.310;8.134;2024-03-06T03:50:08;7.20;99.90
3300;DHT22;1662;49.310;8.134;2024-03-06T03:52:34;7.20;99.90
3300;DHT22;1662;49.310;8.134;2024-03-06T03:55:03;7.20;99.90
3300;DHT22;1662;49.310;8.134;2024-03-06T03:57:31;7.30;99.90
3300;DHT22;1662;49.310;8.134;2024-03-06T03:59:57;7.20;99.90
3300;DHT22;1662;49.310;8.134;2024-03-06T04:02:22;7.20;99.90
3300;DHT22;1662;49.310;8.134;2024-03-06T04:04:48;7.20;99.90
3300;DHT22;1662;49.310;8.134;2024-03-06T04:07:14;7.20;99.90
3300;DHT22;1662;49.310;8.134;2024-03-06T04:09:41;7.10;99.90
3300;DHT22;1662;49.310;8.134;2024-03-06T04:12:07;7.20;99.90
3300;DHT22;1662;49.310;8.134;2024-03-06T04:14:32;7.20;99.90
3300;DHT22;1662;49.310;8.134;2024-03-06T04:16:58;7.20;99.90
3300;DHT22;1662;49.310;8.134;2024-03-06T04:19:23;7.10;99.90
3300;DHT22;1662;49.310;8.134;2024-03-06T04:21:49;7.10;99.90
3300;DHT22;1662;49.310;8.134;2024-03-06T04:24:17;7.00;99.90
3300;DHT22;1662;49.310;8.134;2024-03-06T04:26:43;7.00;99.90
3300;DHT22;1662;49.310;8.134;2024-03-06T04:29:08;6.90;99.90
3300;DHT22;1662;49.310;8.134;2024-03-06T04:31:35;6.90;99.90
3300;DHT22;1662;49.310;8.134;2024-03-06T04:34:00;6.80;99.90
3300;DHT22;1662;49.310;8.134;2024-03-06T04:36:28;6.80;99.90
3300;DHT22;1662;49.310;8.134;2024-03-06T04:38:54;6.80;99.90
3300;DHT22;1662;49.310;8.134;2024-03-06T04:41:19;6.70;99.90
3300;DHT22;1662;49.310;8.134;2024-03-06T04:43:45;6.70;99.90
3300;DHT22;1662;49.310;8.134;2024-03-06T04:46:13;6.70;99.90
3300;DHT22;1662;49.310;8.134;2024-03-06T04:48:40;6.70;99.90
3300;DHT22;1662;49.310;8.134;2024-03-06T04:51:05;6.70;99.90
3300;DHT22;1662;49.310;8.134;2024-03-06T04:53:31;6.70;99.90
3300;DHT22;1662;49.310;8.134;2024-03-06T04:55:56;6.70;99.90
3300;DHT22;1662;49.310;8.134;2024-03-06T04:58:25;6.70;99.90
3300;DHT22;1662;49.310;8.134;2024-03-06T05:00:51;6.70;99.90
3300;DHT22;1662;49.310;8.134;2024-03-06T05:03:16;6.70;99.90
3300;DHT22;1662;49.310;8.134;2024-03-06T05:05:42;6.70;99.90
3300;DHT22;1662;49.310;8.134;2024-03-06T05:08:08;6.60;99.90
3300;DHT22;1662;49.310;8.134;2024-03-06T05:10:35;6.50;99.90
3300;DHT22;1662;49.310;8.134;2024-03-06T05:13:00;6.50;99.90
3300;DHT22;1662;49.310;8.134;2024-03-06T05:15:26;6.50;99.90
3300;DHT22;1662;49.310;8.134;2024-03-06T05:17:52;6.50;99.90
3300;DHT22;1662;49.310;8.134;2024-03-06T05:20:20;6.50;99.90
3300;DHT22;1662;49.310;8.134;2024-03-06T05:22:46;6.50;99.90
3300;DHT22;1662;49.310;8.134;2024-03-06T05:25:14;6.50;99.90
3300;DHT22;1662;49.310;8.134;2024-03-06T05:27:40;6.50;99.90
3300;DHT22;1662;49.310;8.134;2024-03-06T05:30:06;6.60;99.90
3300;DHT22;1662;49.310;8.134;2024-03-06T05:32:36;6.60;99.90
3300;DHT22;1662;49.310;8.134;2024-03-06T05:35:02;6.60;99.90
3300;DHT22;1662;49.310;8.134;2024-03-06T05:37:27;6.70;99.90
3300;DHT22;1662;49.310;8.134;2024-03-06T05:39:54;6.70;99.90
3300;DHT22;1662;49.310;8.134;2024-03-06T05:42:25;6.70;99.90
3300;DHT22;1662;49.310;8.134;2024-03-06T05:44:50;6.70;99.90
3300;DHT22;1662;49.310;8.134;2024-03-06T05:47:20;6.80;99.90
3300;DHT22;1662;49.310;8.134;2024-03-06T05:49:48;6.80;99.90
3300;DHT22;1662;49.310;8.134;2024-03-06T05:52:13;6.90;99.90
3300;DHT22;1662;49.310;8.134;2024-03-06T05:54:39;6.90;99.90
3300;DHT22;1662;49.310;8.134;2024-03-06T05:57:07;6.90;99.90
3300;DHT22;1662;49.310;8.134;2024-03-06T05:59:33;6.90;99.90
3300;DHT22;1662;49.310;8.134;2024-03-06T06:01:58;7.00;99.90
3300;DHT22;1662;49.310;8.134;2024-03-06T06:04:24;7.00;99.90
3300;DHT22;1662;49.310;8.134;2024-03-06T06:06:51;7.00;99.90
3300;DHT22;1662;49.310;8.134;2024-03-06T06:09:17;7.00;99.90
3300;DHT22;1662;49.310;8.134;2024-03-06T06:11:44;7.00;99.90
3300;DHT22;1662;49.310;8.134;2024-03-06T06:14:10;6.90;99.90
3300;DHT22;1662;49.310;8.134;2024-03-06T06:16:40;6.90;99.90
3300;DHT22;1662;49.310;8.134;2024-03-06T06:19:06;6.90;99.90
3300;DHT22;1662;49.310;8.134;2024-03-06T06:21:34;6.90;99.90
3300;DHT22;1662;49.310;8.134;2024-03-06T06:24:02;6.90;99.90
3300;DHT22;1662;49.310;8.134;2024-03-06T06:26:29;6.90;99.90
3300;DHT22;1662;49.310;8.134;2024-03-06T06:28:58;6.90;99.90
3300;DHT22;1662;49.310;8.134;2024-03-06T06:31:24;6.80;99.90
3300;DHT22;1662;49.310;8.134;2024-03-06T06:33:50;6.80;99.90
3300;DHT22;1662;49.310;8.134;2024-03-06T06:36:17;6.80;99.90
3300;DHT22;1662;49.310;8.134;2024-03-06T06:38:43;6.80;99.90
3300;DHT22;1662;49.310;8.134;2024-03-06T06:41:13;6.90;99.90
3300;DHT22;1662;49.310;8.134;2024-03-06T06:43:39;6.80;99.90
3300;DHT22;1662;49.310;8.134;2024-03-06T06:46:05;6.80;99.90
3300;DHT22;1662;49.310;8.134;2024-03-06T06:48:31;6.80;99.90
3300;DHT22;1662;49.310;8.134;2024-03-06T06:51:02;6.80;99.90
3300;DHT22;1662;49.310;8.134;2024-03-06T06:53:31;6.80;99.90
3300;DHT22;1662;49.310;8.134;2024-03-06T06:55:57;6.90;99.90
3300;DHT22;1662;49.310;8.134;2024-03-06T06:58:23;6.90;99.90
3300;DHT22;1662;49.310;8.134;2024-03-06T07:00:49;6.90;99.90
3300;DHT22;1662;49.310;8.134;2024-03-06T07:03:17;6.90;99.90
3300;DHT22;1662;49.310;8.134;2024-03-06T07:05:43;7.00;99.90
3300;DHT22;1662;49.310;8.134;2024-03-06T07:08:11;7.00;99.90
3300;DHT22;1662;49.310;8.134;2024-03-06T07:10:36;7.00;99.90
3300;DHT22;1662;49.310;8.134;2024-03-06T07:13:02;7.00;99.90
3300;DHT22;1662;49.310;8.134;2024-03-06T07:15:28;7.00;99.90
3300;DHT22;1662;49.310;8.134;2024-03-06T07:17:57;7.00;99.90
3300;DHT22;1662;49.310;8.134;2024-03-06T07:20:22;6.90;99.90
3300;DHT22;1662;49.310;8.134;2024-03-06T07:22:48;6.90;99.90
3300;DHT22;1662;49.310;8.134;2024-03-06T07:25:13;6.90;99.90
3300;DHT22;1662;49.310;8.134;2024-03-06T07:27:39;7.00;99.90
3300;DHT22;1662;49.310;8.134;2024-03-06T07:30:05;7.00;99.90
3300;DHT22;1662;49.310;8.134;2024-03-06T07:32:32;7.00;99.90
3300;DHT22;1662;49.310;8.134;2024-03-06T07:34:58;7.00;99.90
3300;DHT22;1662;49.310;8.134;2024-03-06T07:37:24;7.10;99.90
3300;DHT22;1662;49.310;8.134;2024-03-06T07:39:49;7.10;99.90
3300;DHT22;1662;49.310;8.134;2024-03-06T07:42:15;7.10;99.90
3300;DHT22;1662;49.310;8.134;2024-03-06T07:44:41;7.10;99.90
3300;DHT22;1662;49.310;8.134;2024-03-06T07:47:06;7.10;99.90
3300;DHT22;1662;49.310;8.134;2024-03-06T07:49:35;7.20;99.90
3300;DHT22;1662;49.310;8.134;2024-03-06T07:52:01;7.20;99.90
3300;DHT22;1662;49.310;8.134;2024-03-06T07:54:29;7.30;99.90
3300;DHT22;1662;49.310;8.134;2024-03-06T07:56:55;7.30;99.90
3300;DHT22;1662;49.310;8.134;2024-03-06T07:59:23;7.30;99.90
3300;DHT22;1662;49.310;8.134;2024-03-06T08:01:51;7.30;99.90
3300;DHT22;1662;49.310;8.134;2024-03-06T08:04:20;7.30;99.90
3300;DHT22;1662;49.310;8.134;2024-03-06T08:06:46;7.40;99.90
3300;DHT22;1662;49.310;8.134;2024-03-06T08:09:11;7.40;99.90
3300;DHT22;1662;49.310;8.134;2024-03-06T08:11:37;7.40;99.90
3300;DHT22;1662;49.310;8.134;2024-03-06T08:14:03;7.40;99.90
3300;DHT22;1662;49.310;8.134;2024-03-06T08:16:28;7.30;99.90
3300;DHT22;1662;49.310;8.134;2024-03-06T08:18:58;7.40;99.90
3300;DHT22;1662;49.310;8.134;2024-03-06T08:21:25;7.40;99.90
3300;DHT22;1662;49.310;8.134;2024-03-06T08:23:56;7.40;99.90
3300;DHT22;1662;49.310;8.134;2024-03-06T08:26:25;7.40;99.90
3300;DHT22;1662;49.310;8.134;2024-03-06T08:28:53;7.50;99.90
3300;DHT22;1662;49.310;8.134;2024-03-06T08:31:19;7.50;99.90
3300;DHT22;1662;49.310;8.134;2024-03-06T08:33:47;7.60;99.90
3300;DHT22;1662;49.310;8.134;2024-03-06T08:36:15;7.60;99.90
3300;DHT22;1662;49.310;8.134;2024-03-06T08:38:40;7.60;99.90
3300;DHT22;1662;49.310;8.134;2024-03-06T08:41:06;7.70;99.90
3300;DHT22;1662;49.310;8.134;2024-03-06T08:43:32;7.70;99.90
3300;DHT22;1662;49.310;8.134;2024-03-06T08:45:57;7.80;99.90
3300;DHT22;1662;49.310;8.134;2024-03-06T08:48:23;7.80;99.90
3300;DHT22;1662;49.310;8.134;2024-03-06T08:50:49;7.90;99.90
3300;DHT22;1662;49.310;8.134;2024-03-06T08:53:16;7.90;99.90
3300;DHT22;1662;49.310;8.134;2024-03-06T08:55:42;8.00;99.90
3300;DHT22;1662;49.310;8.134;2024-03-06T08:58:07;8.00;99.90
3300;DHT22;1662;49.310;8.134;2024-03-06T09:00:34;8.10;99.90
3300;DHT22;1662;49.310;8.134;2024-03-06T09:03:00;8.10;99.90
3300;DHT22;1662;49.310;8.134;2024-03-06T09:05:25;8.20;99.90
3300;DHT22;1662;49.310;8.134;2024-03-06T09:08:12;8.20;99.90
3300;DHT22;1662;49.310;8.134;2024-03-06T09:10:37;8.30;99.90
3300;DHT22;1662;49.310;8.134;2024-03-06T09:13:03;8.30;99.90
3300;DHT22;1662;49.310;8.134;2024-03-06T09:15:29;8.40;99.90
3300;DHT22;1662;49.310;8.134;2024-03-06T09:17:55;8.40;99.90
3300;DHT22;1662;49.310;8.134;2024-03-06T09:20:20;8.50;99.90
3300;DHT22;1662;49.310;8.134;2024-03-06T09:22:51;8.60;99.90
3300;DHT22;1662;49.310;8.134;2024-03-06T09:25:19;8.60;99.90
3300;DHT22;1662;49.310;8.134;2024-03-06T09:27:45;8.70;99.90
3300;DHT22;1662;49.310;8.134;2024-03-06T09:30:11;8.80;99.90
3300;DHT22;1662;49.310;8.134;2024-03-06T09:32:38;9.00;99.90
3300;DHT22;1662;49.310;8.134;2024-03-06T09:35:04;9.10;99.90
3300;DHT22;1662;49.310;8.134;2024-03-06T09:37:30;9.30;99.90
3300;DHT22;1662;49.310;8.134;2024-03-06T09:39:55;9.40;99.90
3300;DHT22;1662;49.310;8.134;2024-03-06T09:42:21;9.40;99.90
3300;DHT22;1662;49.310;8.134;2024-03-06T09:44:50;9.40;99.90
3300;DHT22;1662;49.310;8.134;2024-03-06T09:47:21;9.50;99.90
3300;DHT22;1662;49.310;8.134;2024-03-06T09:49:53;9.60;99.90
3300;DHT22;1662;49.310;8.134;2024-03-06T09:52:19;9.70;99.90
3300;DHT22;1662;49.310;8.134;2024-03-06T09:54:44;9.70;99.90
3300;DHT22;1662;49.310;8.134;2024-03-06T09:57:10;9.80;99.90
3300;DHT22;1662;49.310;8.134;2024-03-06T09:59:38;9.90;99.90
3300;DHT22;1662;49.310;8.134;2024-03-06T10:04:54;10.00;99.90
3300;DHT22;1662;49.310;8.134;2024-03-06T10:07:20;10.10;99.90
3300;DHT22;1662;49.310;8.134;2024-03-06T10:09:47;10.20;99.90
3300;DHT22;1662;49.310;8.134;2024-03-06T10:12:15;10.30;99.90
3300;DHT22;1662;49.310;8.134;2024-03-06T10:14:50;10.40;99.90
3300;DHT22;1662;49.310;8.134;2024-03-06T10:17:19;10.50;99.90
3300;DHT22;1662;49.310;8.134;2024-03-06T10:19:51;10.60;99.90
3300;DHT22;1662;49.310;8.134;2024-03-06T10:22:20;10.70;99.90
3300;DHT22;1662;49.310;8.134;2024-03-06T10:24:57;10.80;99.90
3300;DHT22;1662;49.310;8.134;2024-03-06T10:27:22;11.00;99.90
3300;DHT22;1662;49.310;8.134;2024-03-06T10:30:01;11.10;99.90
3300;DHT22;1662;49.310;8.134;2024-03-06T10:32:30;11.20;99.90
3300;DHT22;1662;49.310;8.134;2024-03-06T10:34:56;11.30;99.90
3300;DHT22;1662;49.310;8.134;2024-03-06T10:37:22;11.40;99.90
3300;DHT22;1662;49.310;8.134;2024-03-06T10:39:52;11.50;99.90
3300;DHT22;1662;49.310;8.134;2024-03-06T10:42:21;11.60;99.90
3300;DHT22;1662;49.310;8.134;2024-03-06T10:44:52;11.60;99.90
3300;DHT22;1662;49.310;8.134;2024-03-06T10:47:19;11.50;99.90
3300;DHT22;1662;49.310;8.134;2024-03-06T10:49:45;11.50;99.90
3300;DHT22;1662;49.310;8.134;2024-03-06T10:52:12;11.50;99.90
3300;DHT22;1662;49.310;8.134;2024-03-06T10:54:42;11.40;99.90
3300;DHT22;1662;49.310;8.134;2024-03-06T10:57:09;11.30;99.90
3300;DHT22;1662;49.310;8.134;2024-03-06T10:59:35;11.30;99.90
3300;DHT22;1662;49.310;8.134;2024-03-06T11:02:01;11.20;99.90
3300;DHT22;1662;49.310;8.134;2024-03-06T11:04:31;11.10;99.90
3300;DHT22;1662;49.310;8.134;2024-03-06T11:07:01;11.10;99.90
3300;DHT22;1662;49.310;8.134;2024-03-06T11:09:28;11.10;99.90
3300;DHT22;1662;49.310;8.134;2024-03-06T11:11:54;11.10;99.90
3300;DHT22;1662;49.310;8.134;2024-03-06T11:14:24;11.10;99.90
3300;DHT22;1662;49.310;8.134;2024-03-06T11:17:12;11.10;99.90
3300;DHT22;1662;49.310;8.134;2024-03-06T11:28:22;11.20;99.90
3300;DHT22;1662;49.310;8.134;2024-03-06T11:31:01;11.10;99.90
3300;DHT22;1662;49.310;8.134;2024-03-06T11:33:41;11.10;99.90
3300;DHT22;1662;49.310;8.134;2024-03-06T11:41:21;11.10;99.90
3300;DHT22;1662;49.310;8.134;2024-03-06T11:43:48;11.30;99.90
3300;DHT22;1662;49.310;8.134;2024-03-06T11:46:18;11.20;99.90
3300;DHT22;1662;49.310;8.134;2024-03-06T11:48:56;11.30;99.90
3300;DHT22;1662;49.310;8.134;2024-03-06T11:51:24;11.20;99.90
3300;DHT22;1662;49.310;8.134;2024-03-06T11:53:50;11.30;99.90
3300;DHT22;1662;49.310;8.134;2024-03-06T11:56:18;11.30;99.90
3300;DHT22;1662;49.310;8.134;2024-03-06T11:58:47;11.30;99.90
3300;DHT22;1662;49.310;8.134;2024-03-06T12:01:16;11.40;99.90
3300;DHT22;1662;49.310;8.134;2024-03-06T12:03:45;11.50;99.90
3300;DHT22;1662;49.310;8.134;2024-03-06T12:06:12;11.50;99.90
3300;DHT22;1662;49.310;8.134;2024-03-06T12:08:41;11.60;99.90
3300;DHT22;1662;49.310;8.134;2024-03-06T12:11:07;11.60;99.90
3300;DHT22;1662;49.310;8.134;2024-03-06T12:13:33;11.70;99.90
3300;DHT22;1662;49.310;8.134;2024-03-06T12:16:04;11.70;99.90
3300;DHT22;1662;49.310;8.134;2024-03-06T12:18:30;11.70;99.90
3300;DHT22;1662;49.310;8.134;2024-03-06T12:20:56;11.70;99.90
3300;DHT22;1662;49.310;8.134;2024-03-06T12:23:23;11.60;99.90
3300;DHT22;1662;49.310;8.134;2024-03-06T12:25:51;11.60;99.90
3300;DHT22;1662;49.310;8.134;2024-03-06T12:28:27;11.50;99.90
3300;DHT22;1662;49.310;8.134;2024-03-06T12:30:52;11.50;99.90
3300;DHT22;1662;49.310;8.134;2024-03-06T12:33:18;11.50;99.90
3300;DHT22;1662;49.310;8.134;2024-03-06T12:35:45;11.50;99.90
3300;DHT22;1662;49.310;8.134;2024-03-06T12:38:14;11.60;99.90
3300;DHT22;1662;49.310;8.134;2024-03-06T12:40:40;11.50;99.90
3300;DHT22;1662;49.310;8.134;2024-03-06T12:43:09;11.50;99.90
3300;DHT22;1662;49.310;8.134;2024-03-06T12:45:36;11.50;99.90
3300;DHT22;1662;49.310;8.134;2024-03-06T12:48:05;11.40;99.90
3300;DHT22;1662;49.310;8.134;2024-03-06T12:50:34;11.40;99.90
3300;DHT22;1662;49.310;8.134;2024-03-06T12:52:59;11.40;99.90
3300;DHT22;1662;49.310;8.134;2024-03-06T12:55:25;11.40;99.90
3300;DHT22;1662;49.310;8.134;2024-03-06T12:57:51;11.40;99.90
3300;DHT22;1662;49.310;8.134;2024-03-06T13:00:17;11.50;99.90
3300;DHT22;1662;49.310;8.134;2024-03-06T13:02:44;11.50;99.90
3300;DHT22;1662;49.310;8.134;2024-03-06T13:05:10;11.50;99.90
3300;DHT22;1662;49.310;8.134;2024-03-06T13:07:39;11.50;99.90
3300;DHT22;1662;49.310;8.134;2024-03-06T13:10:13;11.40;99.90
3300;DHT22;1662;49.310;8.134;2024-03-06T13:12:38;11.40;99.90
3300;DHT22;1662;49.310;8.134;2024-03-06T13:15:04;11.50;99.90
3300;DHT22;1662;49.310;8.134;2024-03-06T13:17:32;11.50;99.90
3300;DHT22;1662;49.310;8.134;2024-03-06T13:19:58;11.50;99.90
3300;DHT22;1662;49.310;8.134;2024-03-06T13:22:24;11.50;99.90
3300;DHT22;1662;49.310;8.134;2024-03-06T13:24:49;11.50;99.90
3300;DHT22;1662;49.310;8.134;2024-03-06T13:27:16;11.50;99.90
3300;DHT22;1662;49.310;8.134;2024-03-06T13:29:45;11.60;99.90
3300;DHT22;1662;49.310;8.134;2024-03-06T13:32:13;11.50;99.90
3300;DHT22;1662;49.310;8.134;2024-03-06T13:34:39;11.60;99.90
3300;DHT22;1662;49.310;8.134;2024-03-06T13:37:04;11.60;99.90
3300;DHT22;1662;49.310;8.134;2024-03-06T13:39:32;11.50;99.90
3300;DHT22;1662;49.310;8.134;2024-03-06T13:41:58;11.50;99.90
3300;DHT22;1662;49.310;8.134;2024-03-06T13:44:26;11.50;99.90
3300;DHT22;1662;49.310;8.134;2024-03-06T13:46:51;11.50;99.90
3300;DHT22;1662;49.310;8.134;2024-03-06T13:49:40;11.50;99.90
3300;DHT22;1662;49.310;8.134;2024-03-06T13:52:08;11.50;99.90
3300;DHT22;1662;49.310;8.134;2024-03-06T13:54:37;11.50;99.90
3300;DHT22;1662;49.310;8.134;2024-03-06T13:57:03;11.50;99.90
3300;DHT22;1662;49.310;8.134;2024-03-06T13:59:30;11.50;99.90
3300;DHT22;1662;49.310;8.134;2024-03-06T14:01:57;11.50;99.90
3300;DHT22;1662;49.310;8.134;2024-03-06T14:04:24;11.50;99.90
3300;DHT22;1662;49.310;8.134;2024-03-06T14:06:50;11.50;99.90
3300;DHT22;1662;49.310;8.134;2024-03-06T14:09:16;11.50;99.90
3300;DHT22;1662;49.310;8.134;2024-03-06T14:11:41;11.50;99.90
3300;DHT22;1662;49.310;8.134;2024-03-06T14:14:07;11.60;99.90
3300;DHT22;1662;49.310;8.134;2024-03-06T14:16:34;11.60;99.90
3300;DHT22;1662;49.310;8.134;2024-03-06T14:19:00;11.60;99.90
3300;DHT22;1662;49.310;8.134;2024-03-06T14:21:26;11.60;99.90
3300;DHT22;1662;49.310;8.134;2024-03-06T14:23:54;11.50;99.90
3300;DHT22;1662;49.310;8.134;2024-03-06T14:26:19;11.50;99.90
3300;DHT22;1662;49.310;8.134;2024-03-06T14:28:48;11.40;99.90
3300;DHT22;1662;49.310;8.134;2024-03-06T14:31:13;11.40;99.90
3300;DHT22;1662;49.310;8.134;2024-03-06T14:33:40;11.30;99.90
3300;DHT22;1662;49.310;8.134;2024-03-06T14:36:06;11.30;99.90
3300;DHT22;1662;49.310;8.134;2024-03-06T14:38:32;11.30;99.90
3300;DHT22;1662;49.310;8.134;2024-03-06T14:40:58;11.30;99.90
3300;DHT22;1662;49.310;8.134;2024-03-06T14:43:24;11.30;99.90
3300;DHT22;1662;49.310;8.134;2024-03-06T14:45:50;11.30;99.90
3300;DHT22;1662;49.310;8.134;2024-03-06T14:48:19;11.30;99.90
3300;DHT22;1662;49.310;8.134;2024-03-06T14:50:44;11.20;99.90
3300;DHT22;1662;49.310;8.134;2024-03-06T14:53:10;11.20;99.90
3300;DHT22;1662;49.310;8.134;2024-03-06T14:55:37;11.20;99.90
3300;DHT22;1662;49.310;8.134;2024-03-06T14:58:03;11.30;99.90
3300;DHT22;1662;49.310;8.134;2024-03-06T15:00:28;11.20;99.90
3300;DHT22;1662;49.310;8.134;2024-03-06T15:02:54;11.20;99.90
3300;DHT22;1662;49.310;8.134;2024-03-06T15:05:23;11.30;99.90
3300;DHT22;1662;49.310;8.134;2024-03-06T15:07:49;11.20;99.90
3300;DHT22;1662;49.310;8.134;2024-03-06T15:10:15;11.20;99.90
3300;DHT22;1662;49.310;8.134;2024-03-06T15:12:40;11.30;99.90
3300;DHT22;1662;49.310;8.134;2024-03-06T15:15:08;11.30;99.90
3300;DHT22;1662;49.310;8.134;2024-03-06T15:17:33;11.20;99.90
3300;DHT22;1662;49.310;8.134;2024-03-06T15:19:59;11.20;99.90
3300;DHT22;1662;49.310;8.134;2024-03-06T15:22:25;11.10;99.90
3300;DHT22;1662;49.310;8.134;2024-03-06T15:24:51;11.10;99.90
3300;DHT22;1662;49.310;8.134;2024-03-06T15:27:17;11.10;99.90
3300;DHT22;1662;49.310;8.134;2024-03-06T15:29:43;11.10;99.90
3300;DHT22;1662;49.310;8.134;2024-03-06T15:32:09;11.10;99.90
3300;DHT22;1662;49.310;8.134;2024-03-06T15:34:40;11.10;99.90
3300;DHT22;1662;49.310;8.134;2024-03-06T15:37:06;11.10;99.90
3300;DHT22;1662;49.310;8.134;2024-03-06T15:39:32;11.10;99.90
3300;DHT22;1662;49.310;8.134;2024-03-06T15:41:58;11.00;99.90
3300;DHT22;1662;49.310;8.134;2024-03-06T15:44:26;11.00;99.90
3300;DHT22;1662;49.310;8.134;2024-03-06T15:46:54;11.10;99.90
3300;DHT22;1662;49.310;8.134;2024-03-06T15:49:21;11.00;99.90
3300;DHT22;1662;49.310;8.134;2024-03-06T15:51:53;11.00;99.90
3300;DHT22;1662;49.310;8.134;2024-03-06T15:54:21;11.00;99.90
3300;DHT22;1662;49.310;8.134;2024-03-06T15:56:47;11.00;99.90
3300;DHT22;1662;49.310;8.134;2024-03-06T15:59:12;10.90;99.90
3300;DHT22;1662;49.310;8.134;2024-03-06T16:01:38;10.90;99.90
3300;DHT22;1662;49.310;8.134;2024-03-06T16:04:04;10.90;99.90
3300;DHT22;1662;49.310;8.134;2024-03-06T16:06:30;10.90;99.90
3300;DHT22;1662;49.310;8.134;2024-03-06T16:08:57;10.90;99.90
3300;DHT22;1662;49.310;8.134;2024-03-06T16:11:25;10.90;99.90
3300;DHT22;1662;49.310;8.134;2024-03-06T16:13:55;10.90;99.90
3300;DHT22;1662;49.310;8.134;2024-03-06T16:16:26;10.80;99.90
3300;DHT22;1662;49.310;8.134;2024-03-06T16:18:52;10.80;99.90
3300;DHT22;1662;49.310;8.134;2024-03-06T16:21:18;10.70;99.90
3300;DHT22;1662;49.310;8.134;2024-03-06T16:23:44;10.60;99.90
3300;DHT22;1662;49.310;8.134;2024-03-06T16:26:10;10.60;99.90